createdAt,value
2022-10-18T00:00:07.221Z,16.00
2022-10-18T00:02:35.328Z,16.27
2022-10-18T00:05:03.576Z,14.07
2022-10-18T00:07:31.770Z,15.07
2022-10-18T00:10:01.445Z,14.97
2022-10-18T00:12:29.491Z,14.63
2022-10-18T00:14:57.571Z,14.80
2022-10-18T00:17:25.669Z,14.70
2022-10-18T00:19:53.806Z,14.60
2022-10-18T00:22:21.803Z,17.47
2022-10-18T00:24:50.091Z,15.57
2022-10-18T00:27:19.662Z,15.30
2022-10-18T00:29:47.743Z,16.50
2022-10-18T00:32:15.700Z,16.60
2022-10-18T00:34:43.744Z,18.70
2022-10-18T00:37:11.742Z,21.97
2022-10-18T00:39:40.094Z,16.77
2022-10-18T00:42:08.272Z,19.30
2022-10-18T00:45:08.487Z,17.53
2022-10-18T00:47:37.594Z,15.60
2022-10-18T00:50:08.879Z,18.23
2022-10-18T00:52:40.549Z,19.20
2022-10-18T00:55:09.795Z,18.07
2022-10-18T00:57:38.934Z,18.80
2022-10-18T01:00:10.628Z,18.40
2022-10-18T01:02:39.643Z,23.60
2022-10-18T01:05:08.879Z,21.50
2022-10-18T01:08:04.715Z,25.77
2022-10-18T01:10:40.509Z,20.67
2022-10-18T01:13:25.601Z,19.40
2022-10-18T01:16:01.445Z,20.10
2022-10-18T01:18:36.326Z,20.43
2022-10-18T01:21:19.239Z,16.73
2022-10-18T01:24:08.921Z,17.83
2022-10-18T01:26:51.854Z,17.80
2022-10-18T01:29:42.215Z,18.40
2022-10-18T01:32:14.977Z,20.30
2022-10-18T01:34:44.983Z,18.60
2022-10-18T01:37:17.466Z,18.00
2022-10-18T01:39:48.360Z,20.70
2022-10-18T01:42:21.086Z,16.90
2022-10-18T01:44:51.522Z,17.40
2022-10-18T01:47:21.586Z,15.77
2022-10-18T01:49:49.515Z,16.90
2022-10-18T01:52:17.839Z,15.63
2022-10-18T01:54:49.938Z,18.03
2022-10-18T01:57:24.915Z,19.17
2022-10-18T02:00:00.762Z,19.67
2022-10-18T02:02:41.604Z,20.77
2022-10-18T02:05:19.086Z,20.70
2022-10-18T02:08:12.028Z,23.10
2022-10-18T02:10:49.883Z,19.67
2022-10-18T02:13:21.234Z,23.40
2022-10-18T02:15:55.745Z,19.40
2022-10-18T02:18:30.990Z,20.80
2022-10-18T02:21:01.035Z,22.17
2022-10-18T02:23:29.235Z,20.80
2022-10-18T02:25:57.331Z,19.77
2022-10-18T02:28:25.848Z,18.30
2022-10-18T02:31:01.255Z,20.80
2022-10-18T02:33:36.750Z,19.27
2022-10-18T02:36:10.905Z,19.83
2022-10-18T02:38:41.820Z,19.40
2022-10-18T02:41:09.827Z,20.40
2022-10-18T02:43:38.240Z,20.03
2022-10-18T02:46:07.355Z,20.50
2022-10-18T02:48:38.413Z,19.20
2022-10-18T02:51:07.065Z,19.53
2022-10-18T02:53:34.986Z,20.93
2022-10-18T02:56:03.556Z,21.50
2022-10-18T02:58:31.612Z,17.63
2022-10-18T03:00:59.683Z,20.63
2022-10-18T03:03:27.745Z,21.20
2022-10-18T03:05:57.045Z,23.17
2022-10-18T03:08:25.184Z,69.93
2022-10-18T03:10:53.272Z,28.00
2022-10-18T03:13:21.804Z,22.60
2022-10-18T03:15:49.867Z,19.10
2022-10-18T03:18:17.841Z,19.57
2022-10-18T03:20:46.274Z,18.73
2022-10-18T03:23:15.661Z,21.10
2022-10-18T03:25:45.707Z,21.10
2022-10-18T03:28:14.483Z,21.40
2022-10-18T03:30:42.447Z,21.77
2022-10-18T03:33:10.488Z,24.80
2022-10-18T03:35:38.477Z,23.33
2022-10-18T03:38:06.492Z,22.30
2022-10-18T03:40:35.901Z,24.90
2022-10-18T03:43:03.851Z,23.43
2022-10-18T03:45:31.852Z,25.20
2022-10-18T03:47:59.939Z,20.67
2022-10-18T03:50:27.905Z,21.73
2022-10-18T03:52:56.181Z,26.37
2022-10-18T03:55:24.220Z,21.63
2022-10-18T03:57:53.535Z,24.77
2022-10-18T04:00:22.771Z,22.93
2022-10-18T04:02:53.408Z,26.73
2022-10-18T04:05:26.766Z,24.70
2022-10-18T04:07:55.316Z,26.30
2022-10-18T04:10:23.341Z,25.20
2022-10-18T04:12:51.333Z,23.90
2022-10-18T04:15:21.227Z,26.43
2022-10-18T04:17:49.313Z,25.07
2022-10-18T04:20:17.918Z,26.57
2022-10-18T04:22:46.346Z,29.33
2022-10-18T04:25:14.759Z,24.87
2022-10-18T04:27:42.864Z,24.10
2022-10-18T04:30:11.957Z,24.23
2022-10-18T04:32:41.301Z,24.00
2022-10-18T04:35:11.122Z,24.80
2022-10-18T04:37:39.283Z,28.67
2022-10-18T04:40:08.451Z,25.50
2022-10-18T04:42:36.370Z,26.80
2022-10-18T04:45:04.660Z,25.73
2022-10-18T04:47:32.842Z,27.13
2022-10-18T04:50:02.566Z,26.00
2022-10-18T04:52:30.652Z,24.60
2022-10-18T04:54:58.674Z,24.97
2022-10-18T04:57:26.675Z,30.43
2022-10-18T04:59:54.762Z,23.07
2022-10-18T05:02:23.299Z,25.30
2022-10-18T05:04:52.104Z,31.00
2022-10-18T05:07:21.418Z,25.40
2022-10-18T05:09:49.454Z,24.27
2022-10-18T05:12:17.440Z,28.90
2022-10-18T05:14:45.507Z,26.13
2022-10-18T05:17:13.517Z,28.50
2022-10-18T05:19:41.552Z,25.40
2022-10-18T05:22:09.590Z,26.90
2022-10-18T05:24:39.076Z,26.90
2022-10-18T05:27:07.138Z,28.10
2022-10-18T05:29:35.159Z,27.13
2022-10-18T05:32:03.296Z,27.87
2022-10-18T05:34:31.942Z,29.70
2022-10-18T05:37:00.362Z,28.20
2022-10-18T05:39:28.501Z,27.43
2022-10-18T05:41:58.152Z,28.83
2022-10-18T05:44:26.101Z,28.47
2022-10-18T05:46:54.150Z,27.37
2022-10-18T05:49:22.215Z,28.47
2022-10-18T05:51:50.471Z,33.80
2022-10-18T05:54:18.835Z,26.13
2022-10-18T05:56:46.827Z,30.50
2022-10-18T05:59:16.189Z,27.07
2022-10-18T06:01:44.434Z,27.80
2022-10-18T06:04:12.474Z,28.00
2022-10-18T06:06:40.943Z,27.90
2022-10-18T06:09:09.240Z,30.40
2022-10-18T06:11:38.281Z,29.10
2022-10-18T06:14:06.503Z,29.77
2022-10-18T06:19:05.178Z,29.87
2022-10-18T06:21:33.358Z,28.00
2022-10-18T06:24:01.407Z,30.37
2022-10-18T06:26:30.075Z,34.97
2022-10-18T06:28:58.330Z,32.80
2022-10-18T06:31:26.451Z,36.13
2022-10-18T06:33:57.135Z,34.20
2022-10-18T06:36:25.700Z,32.43
2022-10-18T06:38:54.492Z,29.77
2022-10-18T06:41:22.582Z,32.20
2022-10-18T06:43:50.950Z,35.53
2022-10-18T06:46:18.935Z,31.53
2022-10-18T06:48:48.049Z,37.20
2022-10-18T06:51:18.313Z,27.13
2022-10-18T06:53:59.066Z,29.90
2022-10-18T06:56:34.542Z,30.37
2022-10-18T06:59:02.733Z,30.73
2022-10-18T07:01:31.145Z,40.20
2022-10-18T07:03:59.307Z,34.70
2022-10-18T07:06:28.654Z,35.50
2022-10-18T07:08:57.071Z,34.60
2022-10-18T07:11:26.490Z,31.60
2022-10-18T07:13:55.429Z,35.20
2022-10-18T07:16:23.587Z,29.30
2022-10-18T07:18:52.795Z,38.90
2022-10-18T07:21:22.849Z,36.03
2022-10-18T07:23:52.986Z,36.70
2022-10-18T07:26:23.071Z,32.87
2022-10-18T07:28:54.148Z,36.83
2022-10-18T07:31:23.238Z,31.20
2022-10-18T07:33:51.482Z,31.00
2022-10-18T07:36:21.107Z,33.20
2022-10-18T07:38:49.143Z,30.80
2022-10-18T07:41:18.431Z,29.83
2022-10-18T07:43:48.390Z,33.67
2022-10-18T07:46:17.380Z,37.77
2022-10-18T07:48:45.635Z,32.97
2022-10-18T07:51:13.819Z,33.90
2022-10-18T07:53:42.013Z,32.97
2022-10-18T07:56:16.015Z,34.20
2022-10-18T07:58:46.498Z,31.17
2022-10-18T08:01:15.712Z,28.40
2022-10-18T08:03:44.491Z,25.27
2022-10-18T08:06:15.131Z,31.80
2022-10-18T08:08:43.523Z,27.57
2022-10-18T08:11:13.588Z,24.37
2022-10-18T08:13:46.051Z,25.73
2022-10-18T08:16:16.519Z,29.07
2022-10-18T08:18:44.827Z,29.93
2022-10-18T08:21:14.767Z,25.13
2022-10-18T08:23:43.202Z,27.43
2022-10-18T08:26:13.295Z,23.30
2022-10-18T08:28:46.109Z,25.37
2022-10-18T08:31:23.390Z,24.20
2022-10-18T08:33:55.854Z,22.67
2022-10-18T08:36:24.056Z,21.87
2022-10-18T08:38:52.152Z,22.30
2022-10-18T08:41:42.304Z,23.33
2022-10-18T08:44:18.093Z,23.30
2022-10-18T08:46:50.321Z,21.77
2022-10-18T08:49:28.411Z,22.23
2022-10-18T08:51:57.653Z,22.30
2022-10-18T08:54:33.000Z,20.90
2022-10-18T08:57:03.203Z,18.83
2022-10-18T08:59:38.819Z,20.20
2022-10-18T09:02:21.129Z,20.00
2022-10-18T09:04:55.215Z,20.80
2022-10-18T09:07:47.596Z,19.90
2022-10-18T09:10:25.664Z,19.47
2022-10-18T09:13:10.223Z,18.17
2022-10-18T09:15:44.426Z,18.47
2022-10-18T09:18:33.509Z,18.53
2022-10-18T09:21:07.181Z,19.67
2022-10-18T09:23:45.406Z,17.10
2022-10-18T09:26:18.567Z,18.80
2022-10-18T09:29:01.391Z,17.23
2022-10-18T09:31:38.227Z,17.00
2022-10-18T09:34:11.920Z,18.17
2022-10-18T09:36:40.282Z,16.17
2022-10-18T09:39:13.403Z,18.10
2022-10-18T09:41:45.642Z,18.37
2022-10-18T09:44:22.006Z,17.70
2022-10-18T09:46:54.557Z,18.77
2022-10-18T09:49:28.764Z,19.70
2022-10-18T09:51:57.987Z,21.33
2022-10-18T09:54:31.694Z,19.30
2022-10-18T09:57:05.822Z,20.90
2022-10-18T09:59:41.975Z,19.63
2022-10-18T10:02:14.494Z,20.90
2022-10-18T10:04:44.509Z,19.83
2022-10-18T10:07:15.150Z,22.80
2022-10-18T10:09:46.899Z,21.57
2022-10-18T10:12:28.690Z,21.47
2022-10-18T10:15:08.669Z,21.80
2022-10-18T10:17:39.603Z,21.10
2022-10-18T10:20:19.159Z,24.33
2022-10-18T10:22:48.227Z,20.37
2022-10-18T10:25:24.064Z,20.40
2022-10-18T10:27:52.368Z,21.57
2022-10-18T10:30:27.252Z,21.43
2022-10-18T10:32:57.025Z,20.77
2022-10-18T10:38:27.781Z,22.57
2022-10-18T10:40:56.699Z,24.87
2022-10-18T10:43:42.578Z,23.77
2022-10-18T10:46:12.956Z,25.37
2022-10-18T10:48:48.137Z,22.70
2022-10-18T10:51:19.323Z,22.03
2022-10-18T10:53:52.639Z,21.97
2022-10-18T10:56:29.529Z,20.20
2022-10-18T10:59:01.980Z,20.53
2022-10-18T11:01:34.209Z,18.60
2022-10-18T11:04:04.768Z,21.10
2022-10-18T11:06:45.482Z,22.17
2022-10-18T11:09:25.750Z,19.87
2022-10-18T11:12:09.282Z,21.03
2022-10-18T11:14:42.879Z,22.67
2022-10-18T11:17:25.448Z,20.23
2022-10-18T11:20:11.131Z,21.97
2022-10-18T11:22:45.098Z,22.17
2022-10-18T11:25:17.155Z,21.17
2022-10-18T11:27:53.739Z,20.07
2022-10-18T11:30:56.809Z,19.47
2022-10-18T11:34:03.667Z,20.07
2022-10-18T11:36:28.463Z,19.57
2022-10-18T11:39:04.019Z,22.03
2022-10-18T11:41:35.611Z,19.13
2022-10-18T11:44:05.740Z,19.67
2022-10-18T11:46:48.089Z,19.93
2022-10-18T11:49:48.403Z,18.93
2022-10-18T11:52:26.005Z,18.80
2022-10-18T11:55:11.806Z,18.73
2022-10-18T11:57:53.394Z,17.97
2022-10-18T12:00:30.305Z,22.50
2022-10-18T12:03:13.337Z,16.87
2022-10-18T12:05:44.256Z,16.27
2022-10-18T12:08:16.691Z,17.23
2022-10-18T12:11:07.984Z,19.30
2022-10-18T12:13:40.539Z,16.33
2022-10-18T12:16:09.763Z,17.43
2022-10-18T12:18:48.191Z,16.53
2022-10-18T12:21:23.101Z,17.63
2022-10-18T12:23:57.383Z,17.23
2022-10-18T12:26:28.285Z,18.00
2022-10-18T12:29:09.646Z,16.33
2022-10-18T12:31:41.611Z,16.20
2022-10-18T12:34:26.923Z,17.73
2022-10-18T12:37:32.698Z,18.20
2022-10-18T12:40:10.483Z,15.10
2022-10-18T12:42:45.539Z,15.13
2022-10-18T12:45:34.171Z,17.50
2022-10-18T12:48:03.825Z,16.20
2022-10-18T12:50:35.847Z,14.13
2022-10-18T12:53:07.034Z,15.30
2022-10-18T12:55:37.897Z,15.33
2022-10-18T12:58:24.350Z,13.93
2022-10-18T13:00:57.216Z,14.47
2022-10-18T13:03:56.522Z,13.70
2022-10-18T13:06:25.296Z,15.20
2022-10-18T13:09:19.270Z,14.40
2022-10-18T13:11:47.375Z,14.10
2022-10-18T13:15:12.625Z,13.80
2022-10-18T13:17:52.320Z,13.50
2022-10-18T13:20:27.882Z,12.60
2022-10-18T13:23:10.388Z,13.73
2022-10-18T13:25:51.719Z,13.80
2022-10-18T13:28:32.219Z,14.60
2022-10-18T13:31:12.862Z,15.10
2022-10-18T13:33:42.897Z,17.60
2022-10-18T13:36:23.592Z,12.10
2022-10-18T13:39:04.921Z,13.27
2022-10-18T13:41:57.402Z,12.60
2022-10-18T13:44:30.550Z,13.17
2022-10-18T13:47:35.435Z,11.90
2022-10-18T13:50:37.206Z,12.30
2022-10-18T13:53:45.252Z,11.27
2022-10-18T13:56:49.856Z,11.83
2022-10-18T13:59:31.453Z,10.90
2022-10-18T14:02:30.739Z,11.50
2022-10-18T14:05:25.871Z,11.80
2022-10-18T14:07:59.515Z,12.90
2022-10-18T14:10:50.067Z,11.70
2022-10-18T14:13:31.357Z,11.90
2022-10-18T14:16:07.901Z,10.77
2022-10-18T14:18:38.922Z,12.00
2022-10-18T14:21:15.380Z,12.00
2022-10-18T14:23:47.189Z,11.23
2022-10-18T14:26:16.936Z,11.20
2022-10-18T14:28:59.679Z,11.80
2022-10-18T14:31:30.792Z,13.90
2022-10-18T14:33:59.911Z,12.90
2022-10-18T14:36:31.717Z,15.00
2022-10-18T14:39:01.622Z,13.30
2022-10-18T14:41:32.781Z,14.20
2022-10-18T14:44:19.333Z,12.50
2022-10-18T14:46:50.894Z,13.87
2022-10-18T14:49:20.440Z,15.20
2022-10-18T14:51:52.384Z,13.83
2022-10-18T14:54:29.040Z,14.07
2022-10-18T14:57:00.369Z,21.70
2022-10-18T14:59:31.066Z,16.30
2022-10-18T15:02:05.058Z,30.17
2022-10-18T15:04:33.765Z,17.90
2022-10-18T15:07:03.851Z,12.67
2022-10-18T15:09:34.282Z,38.27
2022-10-18T15:12:03.297Z,36.83
2022-10-18T15:14:32.264Z,27.03
2022-10-18T15:17:06.331Z,21.97
2022-10-18T15:19:36.772Z,22.90
2022-10-18T15:22:30.940Z,28.03
2022-10-18T15:25:17.941Z,22.87
2022-10-18T15:27:48.394Z,20.70
2022-10-18T15:30:23.991Z,25.60
2022-10-18T15:32:56.483Z,20.93
2022-10-18T15:35:28.554Z,15.10
2022-10-18T15:37:58.298Z,13.33
2022-10-18T15:40:40.751Z,14.07
2022-10-18T15:43:39.174Z,13.87
2022-10-18T15:46:07.755Z,15.17
2022-10-18T15:48:39.810Z,18.10
2022-10-18T15:51:09.314Z,14.07
2022-10-18T15:53:44.390Z,19.70
2022-10-18T15:56:29.084Z,16.83
2022-10-18T15:58:58.042Z,18.33
2022-10-18T16:01:34.242Z,16.43
2022-10-18T16:04:08.954Z,14.67
2022-10-18T16:06:38.555Z,207.43
2022-10-18T16:09:06.783Z,32.70
2022-10-18T16:11:34.778Z,45.00
2022-10-18T16:14:03.175Z,77.53
2022-10-18T16:16:31.503Z,68.50
2022-10-18T16:18:59.895Z,65.00
2022-10-18T16:21:31.738Z,44.80
2022-10-18T16:24:00.276Z,61.20
2022-10-18T16:26:29.471Z,32.40
2022-10-18T16:28:58.466Z,21.23
2022-10-18T16:31:28.495Z,20.17
2022-10-18T16:33:57.300Z,16.83
2022-10-18T16:36:27.189Z,16.93
2022-10-18T16:38:57.073Z,18.87
2022-10-18T16:41:25.381Z,23.70
2022-10-18T16:43:53.920Z,20.47
2022-10-18T16:46:24.199Z,15.00
2022-10-18T16:48:52.891Z,14.57
2022-10-18T16:51:21.373Z,16.07
2022-10-18T16:53:49.700Z,18.17
2022-10-18T16:56:21.891Z,16.50
2022-10-18T16:58:51.487Z,16.90
2022-10-18T17:01:23.577Z,20.70
2022-10-18T17:03:52.790Z,20.13
2022-10-18T17:06:23.668Z,32.57
2022-10-18T17:08:52.901Z,44.80
2022-10-18T17:11:24.312Z,44.37
2022-10-18T17:13:52.732Z,132.87
2022-10-18T17:16:25.179Z,134.00
2022-10-18T17:18:53.362Z,120.07
2022-10-18T17:21:21.546Z,91.77
2022-10-18T17:23:49.643Z,81.30
2022-10-18T17:26:34.277Z,66.17
2022-10-18T17:29:06.973Z,63.23
2022-10-18T17:31:36.055Z,57.07
2022-10-18T17:34:05.351Z,27.73
2022-10-18T17:36:34.582Z,29.93
2022-10-18T17:39:03.042Z,27.43
2022-10-18T17:41:31.568Z,104.73
2022-10-18T17:44:00.330Z,38.10
2022-10-18T17:46:30.060Z,41.03
2022-10-18T17:48:58.815Z,19.60
2022-10-18T17:51:26.903Z,20.47
2022-10-18T17:53:56.264Z,19.33
2022-10-18T17:56:34.768Z,28.40
2022-10-18T17:59:03.702Z,21.93
2022-10-18T18:01:33.660Z,25.00
2022-10-18T18:04:02.936Z,23.80
2022-10-18T18:06:33.926Z,15.27
2022-10-18T18:09:04.776Z,17.60
2022-10-18T18:11:33.216Z,14.53
2022-10-18T18:14:01.485Z,15.40
2022-10-18T18:16:31.191Z,14.53
2022-10-18T18:19:00.634Z,12.93
2022-10-18T18:21:29.947Z,13.80
2022-10-18T18:23:59.397Z,12.93
2022-10-18T18:26:32.388Z,11.63
2022-10-18T18:31:40.005Z,6.53
2022-10-18T18:34:12.421Z,6.30
2022-10-18T18:36:41.475Z,5.37
2022-10-18T18:39:19.598Z,4.67
2022-10-18T18:41:52.268Z,6.13
2022-10-18T18:44:21.392Z,7.30
2022-10-18T18:46:50.335Z,6.37
2022-10-18T18:49:20.447Z,7.93
2022-10-18T18:51:48.593Z,7.43
2022-10-18T18:54:19.297Z,7.40
2022-10-18T18:56:49.930Z,12.43
2022-10-18T18:59:18.500Z,8.43
2022-10-18T19:01:46.794Z,6.60
2022-10-18T19:04:14.897Z,6.40
2022-10-18T19:06:47.246Z,7.40
2022-10-18T19:09:19.519Z,7.00
2022-10-18T19:11:49.199Z,5.93
2022-10-18T19:14:17.664Z,6.03
2022-10-18T19:16:49.215Z,7.03
2022-10-18T19:19:18.995Z,6.47
2022-10-18T19:21:51.315Z,7.93
2022-10-18T19:24:20.336Z,6.00
2022-10-18T19:26:53.684Z,7.77
2022-10-18T19:29:24.066Z,6.60
2022-10-18T19:31:53.967Z,7.17
2022-10-18T19:34:25.542Z,6.40
2022-10-18T19:36:55.232Z,6.63
2022-10-18T19:39:24.838Z,8.20
2022-10-18T19:41:55.185Z,7.07
2022-10-18T19:44:24.651Z,7.13
2022-10-18T19:46:53.123Z,7.67
2022-10-18T19:49:21.280Z,7.40
2022-10-18T19:51:52.105Z,8.03
2022-10-18T19:54:22.043Z,9.10
2022-10-18T19:56:50.387Z,8.43
2022-10-18T19:59:18.926Z,8.57
2022-10-18T20:01:47.238Z,10.53
2022-10-18T20:04:16.452Z,9.53
2022-10-18T20:06:44.900Z,9.20
2022-10-18T20:09:17.753Z,7.90
2022-10-18T20:11:51.710Z,9.47
2022-10-18T20:14:20.102Z,8.80
2022-10-18T20:16:48.317Z,9.17
2022-10-18T20:19:16.448Z,7.30
2022-10-18T20:21:44.562Z,8.17
2022-10-18T20:24:12.961Z,8.57
2022-10-18T20:26:41.116Z,8.43
2022-10-18T20:29:11.192Z,7.43
2022-10-18T20:31:39.556Z,6.83
2022-10-18T20:34:11.168Z,7.03
2022-10-18T20:36:40.375Z,7.57
2022-10-18T20:39:08.966Z,7.17
2022-10-18T20:41:41.072Z,7.90
2022-10-18T20:44:15.094Z,7.30
2022-10-18T20:46:43.777Z,7.10
2022-10-18T20:49:15.771Z,6.70
2022-10-18T20:51:44.211Z,5.90
2022-10-18T20:54:12.861Z,6.00
2022-10-18T20:56:40.968Z,6.17
2022-10-18T20:59:13.928Z,6.40
2022-10-18T21:01:42.121Z,7.40
2022-10-18T21:04:11.553Z,6.90
2022-10-18T21:06:42.050Z,8.97
2022-10-18T21:09:13.120Z,8.87
2022-10-18T21:11:44.652Z,9.20
2022-10-18T21:14:16.526Z,9.10
2022-10-18T21:16:45.020Z,10.20
2022-10-18T21:19:15.218Z,9.20
2022-10-18T21:21:45.841Z,9.20
2022-10-18T21:24:14.928Z,10.80
2022-10-18T21:26:43.030Z,10.03
2022-10-18T21:29:15.953Z,10.13
2022-10-18T21:31:46.232Z,10.40
2022-10-18T21:34:17.085Z,11.40
2022-10-18T21:36:46.901Z,9.90
2022-10-18T21:39:17.087Z,10.97
2022-10-18T21:41:45.326Z,10.67
2022-10-18T21:44:25.014Z,10.90
2022-10-18T21:46:53.276Z,12.43
2022-10-18T21:49:24.750Z,12.60
2022-10-18T21:51:52.815Z,11.83
2022-10-18T21:54:21.200Z,13.17
2022-10-18T21:56:49.241Z,11.07
2022-10-18T21:59:18.645Z,12.20
2022-10-18T22:01:46.767Z,12.13
2022-10-18T22:04:20.282Z,12.03
2022-10-18T22:06:48.695Z,13.07
2022-10-18T22:09:17.215Z,11.97
2022-10-18T22:11:47.234Z,12.23
2022-10-18T22:14:15.764Z,11.50
2022-10-18T22:16:45.268Z,12.50
2022-10-18T22:19:13.401Z,11.00
2022-10-18T22:21:41.696Z,12.40
2022-10-18T22:24:10.621Z,13.27
2022-10-18T22:26:40.617Z,12.23
2022-10-18T22:29:12.112Z,11.73
2022-10-18T22:31:42.557Z,14.27
2022-10-18T22:34:13.844Z,13.40
2022-10-18T22:36:42.417Z,13.80
2022-10-18T22:39:11.229Z,13.43
2022-10-18T22:41:39.478Z,11.70
2022-10-18T22:44:13.397Z,11.77
2022-10-18T22:46:42.090Z,10.87
2022-10-18T22:49:12.903Z,10.30
2022-10-18T22:51:41.544Z,9.67
2022-10-18T22:54:10.460Z,11.50
2022-10-18T22:56:38.582Z,11.57
2022-10-18T22:59:06.794Z,11.10
2022-10-18T23:01:34.940Z,12.77
2022-10-18T23:04:04.059Z,11.30
2022-10-18T23:06:37.362Z,10.30
2022-10-18T23:09:08.703Z,11.03
2022-10-18T23:11:37.959Z,10.07
2022-10-18T23:14:07.568Z,10.43
2022-10-18T23:16:36.060Z,10.83
2022-10-18T23:19:04.976Z,10.90
2022-10-18T23:21:35.213Z,9.60
2022-10-18T23:24:03.427Z,10.47
2022-10-18T23:26:31.566Z,9.80
2022-10-18T23:29:02.949Z,10.00
2022-10-18T23:31:33.138Z,9.90
2022-10-18T23:34:03.214Z,9.30
2022-10-18T23:36:32.578Z,10.60
2022-10-18T23:39:02.908Z,10.00
2022-10-18T23:41:31.463Z,10.07
2022-10-18T23:43:59.604Z,9.77
2022-10-18T23:46:27.680Z,9.20
2022-10-18T23:48:55.946Z,9.53
2022-10-18T23:51:24.180Z,11.50
2022-10-18T23:53:52.357Z,10.20
2022-10-18T23:56:21.921Z,9.30
2022-10-18T23:58:50.029Z,9.30
